NKS851 KDTW-KMYR
Flight info
| Callsign | NKS851 |
|---|---|
| Flight time | 1h 31m |
| Altitude | 37000 |
| Route | LIDDS4 GRIVY EKN RDU/N0443F380 FAY |
| Aircraft | A320/M-SDE3FGHIRWY/LB1 |
Departure
| Time | 2026-05-09 17:27 |
|---|---|
| Airport | Detroit Metropolitan Wayne County Airport (KDTW) |
Arrival
| Time | 2026-05-09 18:59 |
|---|---|
| Airport | Myrtle Beach International Airport (KMYR) |
| Time | Latitude | Longitude | Altitude | Speed | Heading |
|---|---|---|---|---|---|
| 2026-05-09 16:47 | 42.22477 | -83.34992 | 646 ft | 0 kts | 146° |
| 2026-05-09 16:48 | 42.22477 | -83.34991 | 646 ft | 0 kts | 146° |
| 2026-05-09 16:51 | 42.22477 | -83.34992 | 646 ft | 0 kts | 146° |
| 2026-05-09 17:11 | 42.22486 | -83.35000 | 646 ft | 3 kts | 146° |
| 2026-05-09 17:11 | 42.22502 | -83.35015 | 647 ft | 3 kts | 146° |
| 2026-05-09 17:11 | 42.22519 | -83.35031 | 646 ft | 3 kts | 150° |
| 2026-05-09 17:12 | 42.22536 | -83.35041 | 646 ft | 3 kts | 184° |
| 2026-05-09 17:12 | 42.22552 | -83.35036 | 646 ft | 3 kts | 208° |
| 2026-05-09 17:12 | 42.22563 | -83.35027 | 646 ft | 0 kts | 208° |
| 2026-05-09 17:15 | 42.22558 | -83.35031 | 646 ft | 3 kts | 208° |
| 2026-05-09 17:16 | 42.22518 | -83.35060 | 647 ft | 10 kts | 208° |
| 2026-05-09 17:17 | 42.21829 | -83.35632 | 647 ft | 12 kts | 133° |
| 2026-05-09 17:18 | 42.21820 | -83.35518 | 646 ft | 14 kts | 88° |
| 2026-05-09 17:18 | 42.21824 | -83.35345 | 647 ft | 22 kts | 88° |
| 2026-05-09 17:18 | 42.21826 | -83.35132 | 646 ft | 24 kts | 90° |
| 2026-05-09 17:18 | 42.21830 | -83.34901 | 646 ft | 25 kts | 88° |
| 2026-05-09 17:19 | 42.21836 | -83.34676 | 647 ft | 22 kts | 87° |
| 2026-05-09 17:19 | 42.21842 | -83.34536 | 647 ft | 13 kts | 69° |
| 2026-05-09 17:19 | 42.21919 | -83.34457 | 647 ft | 15 kts | 24° |
| 2026-05-09 17:19 | 42.22018 | -83.34382 | 646 ft | 17 kts | 29° |
| 2026-05-09 17:20 | 42.22131 | -83.34298 | 646 ft | 20 kts | 28° |
| 2026-05-09 17:20 | 42.22257 | -83.34208 | 646 ft | 22 kts | 27° |
| 2026-05-09 17:20 | 42.22387 | -83.34113 | 648 ft | 19 kts | 29° |
| 2026-05-09 17:20 | 42.22495 | -83.34032 | 646 ft | 18 kts | 28° |
| 2026-05-09 17:21 | 42.22612 | -83.33944 | 647 ft | 20 kts | 28° |
| 2026-05-09 17:21 | 42.22731 | -83.33857 | 646 ft | 14 kts | 28° |
| 2026-05-09 17:21 | 42.22792 | -83.33812 | 646 ft | 10 kts | 28° |
| 2026-05-09 17:21 | 42.22858 | -83.33762 | 646 ft | 7 kts | 38° |
| 2026-05-09 17:22 | 42.22860 | -83.33719 | 646 ft | 0 kts | 114° |
| 2026-05-09 17:22 | 42.22860 | -83.33720 | 645 ft | 0 kts | 114° |
| 2026-05-09 17:25 | 42.22860 | -83.33719 | 645 ft | 1 kts | 114° |
| 2026-05-09 17:25 | 42.22843 | -83.33674 | 647 ft | 9 kts | 118° |
| 2026-05-09 17:25 | 42.22791 | -83.33644 | 645 ft | 10 kts | 198° |
| 2026-05-09 17:25 | 42.22769 | -83.33660 | 645 ft | 0 kts | 211° |
| 2026-05-09 17:26 | 42.22737 | -83.33685 | 646 ft | 29 kts | 209° |
| 2026-05-09 17:27 | 42.22347 | -83.33970 | 646 ft | 96 kts | 208° |
| 2026-05-09 17:27 | 42.21603 | -83.34520 | 646 ft | 145 kts | 209° |
| 2026-05-09 17:27 | 42.20662 | -83.35222 | 1078 ft | 151 kts | 207° |
| 2026-05-09 17:27 | 42.19748 | -83.35898 | 1781 ft | 150 kts | 205° |
| 2026-05-09 17:28 | 42.18745 | -83.36287 | 2420 ft | 155 kts | 185° |
| 2026-05-09 17:28 | 42.17577 | -83.36256 | 2750 ft | 181 kts | 180° |
| 2026-05-09 17:28 | 42.16234 | -83.36181 | 3059 ft | 205 kts | 180° |
| 2026-05-09 17:28 | 42.14723 | -83.36101 | 3501 ft | 230 kts | 180° |
| 2026-05-09 17:29 | 42.13023 | -83.36011 | 4171 ft | 249 kts | 180° |
| 2026-05-09 17:29 | 42.11284 | -83.35912 | 5073 ft | 256 kts | 180° |
| 2026-05-09 17:29 | 42.09482 | -83.35807 | 5994 ft | 261 kts | 181° |
| 2026-05-09 17:29 | 42.07646 | -83.35701 | 6870 ft | 267 kts | 181° |
| 2026-05-09 17:30 | 42.05771 | -83.35263 | 7711 ft | 279 kts | 162° |
| 2026-05-09 17:30 | 42.04157 | -83.33799 | 8491 ft | 294 kts | 136° |
| 2026-05-09 17:30 | 42.03121 | -83.31375 | 9275 ft | 308 kts | 109° |
| 2026-05-09 17:30 | 42.02672 | -83.28485 | 10069 ft | 314 kts | 102° |
| 2026-05-09 17:31 | 42.02259 | -83.25525 | 10460 ft | 335 kts | 102° |
| 2026-05-09 17:31 | 42.01816 | -83.22386 | 10804 ft | 353 kts | 102° |
| 2026-05-09 17:32 | 42.02655 | -83.08895 | 13477 ft | 374 kts | 78° |
| 2026-05-09 17:32 | 42.03128 | -83.05442 | 14145 ft | 378 kts | 79° |
| 2026-05-09 17:32 | 42.03601 | -83.01907 | 14792 ft | 382 kts | 79° |
| 2026-05-09 17:33 | 42.04070 | -82.98361 | 15396 ft | 386 kts | 79° |
| 2026-05-09 17:33 | 42.04543 | -82.94781 | 16005 ft | 390 kts | 79° |
| 2026-05-09 17:33 | 42.05015 | -82.91220 | 16595 ft | 394 kts | 79° |
| 2026-05-09 17:33 | 42.05500 | -82.87579 | 17168 ft | 398 kts | 79° |
| 2026-05-09 17:34 | 42.05993 | -82.83850 | 17741 ft | 402 kts | 79° |
| 2026-05-09 17:35 | 42.05023 | -82.61068 | 21113 ft | 422 kts | 106° |
| 2026-05-09 17:35 | 42.04308 | -82.57221 | 21651 ft | 425 kts | 106° |
| 2026-05-09 17:36 | 42.03589 | -82.53355 | 22182 ft | 427 kts | 106° |
| 2026-05-09 17:36 | 42.02865 | -82.49464 | 22708 ft | 430 kts | 107° |
| 2026-05-09 17:36 | 42.02142 | -82.45537 | 23213 ft | 433 kts | 106° |
| 2026-05-09 17:36 | 42.01424 | -82.41593 | 23728 ft | 436 kts | 106° |
| 2026-05-09 17:37 | 42.00702 | -82.37616 | 24204 ft | 439 kts | 107° |
| 2026-05-09 17:37 | 41.99977 | -82.33625 | 24672 ft | 441 kts | 107° |
| 2026-05-09 17:37 | 41.99243 | -82.29601 | 25105 ft | 444 kts | 107° |
| 2026-05-09 17:37 | 41.98499 | -82.25558 | 25524 ft | 447 kts | 107° |
| 2026-05-09 17:38 | 41.97748 | -82.21488 | 25948 ft | 450 kts | 107° |
| 2026-05-09 17:38 | 41.96989 | -82.17393 | 26360 ft | 452 kts | 108° |
| 2026-05-09 17:38 | 41.95977 | -82.13406 | 26755 ft | 450 kts | 118° |
| 2026-05-09 17:39 | 41.92654 | -82.06378 | 27503 ft | 444 kts | 137° |
| 2026-05-09 17:39 | 41.90461 | -82.03498 | 27868 ft | 440 kts | 146° |
| 2026-05-09 17:39 | 41.88059 | -82.00955 | 28233 ft | 440 kts | 148° |
| 2026-05-09 17:39 | 41.85642 | -81.98420 | 28585 ft | 442 kts | 148° |
| 2026-05-09 17:40 | 41.83210 | -81.95872 | 28935 ft | 445 kts | 148° |
| 2026-05-09 17:40 | 41.80769 | -81.93317 | 29280 ft | 447 kts | 148° |
| 2026-05-09 17:40 | 41.78309 | -81.90743 | 29625 ft | 449 kts | 148° |
| 2026-05-09 17:40 | 41.75841 | -81.88160 | 29967 ft | 452 kts | 148° |
| 2026-05-09 17:41 | 41.73359 | -81.85564 | 30304 ft | 454 kts | 148° |
| 2026-05-09 17:41 | 41.70862 | -81.82953 | 30615 ft | 457 kts | 148° |
| 2026-05-09 17:41 | 41.68336 | -81.80351 | 30910 ft | 459 kts | 149° |
| 2026-05-09 17:41 | 41.65773 | -81.77795 | 31200 ft | 461 kts | 150° |
| 2026-05-09 17:42 | 41.63181 | -81.75270 | 31520 ft | 462 kts | 150° |
| 2026-05-09 17:42 | 41.60571 | -81.72755 | 31922 ft | 462 kts | 151° |
| 2026-05-09 17:42 | 41.57969 | -81.70253 | 32309 ft | 462 kts | 150° |
| 2026-05-09 17:42 | 41.55368 | -81.67736 | 32675 ft | 463 kts | 151° |
| 2026-05-09 17:43 | 41.52762 | -81.65204 | 33048 ft | 463 kts | 150° |
| 2026-05-09 17:43 | 41.50160 | -81.62673 | 33418 ft | 463 kts | 150° |
| 2026-05-09 17:43 | 41.47555 | -81.60135 | 33778 ft | 464 kts | 151° |
| 2026-05-09 17:43 | 41.44955 | -81.57599 | 34123 ft | 465 kts | 151° |
| 2026-05-09 17:44 | 41.42332 | -81.55043 | 34473 ft | 465 kts | 151° |
| 2026-05-09 17:44 | 41.39717 | -81.52497 | 34789 ft | 466 kts | 151° |
| 2026-05-09 17:44 | 41.37094 | -81.49949 | 35067 ft | 467 kts | 151° |
| 2026-05-09 17:44 | 41.34469 | -81.47403 | 35376 ft | 468 kts | 151° |
| 2026-05-09 17:45 | 41.31833 | -81.44854 | 35649 ft | 469 kts | 151° |
| 2026-05-09 17:45 | 41.29191 | -81.42300 | 35920 ft | 470 kts | 151° |
| 2026-05-09 17:45 | 41.26544 | -81.39746 | 36179 ft | 470 kts | 151° |
| 2026-05-09 17:45 | 41.23898 | -81.37196 | 36432 ft | 471 kts | 151° |
| 2026-05-09 17:46 | 41.21236 | -81.34632 | 36668 ft | 472 kts | 151° |
| 2026-05-09 17:46 | 41.18574 | -81.32071 | 36802 ft | 473 kts | 151° |
| 2026-05-09 17:46 | 41.15920 | -81.29513 | 36836 ft | 470 kts | 151° |
| 2026-05-09 17:47 | 41.10655 | -81.24439 | 36830 ft | 465 kts | 151° |
| 2026-05-09 17:47 | 41.05141 | -81.20331 | 36830 ft | 448 kts | 167° |
| 2026-05-09 17:48 | 40.99353 | -81.17275 | 36839 ft | 448 kts | 166° |
| 2026-05-09 17:48 | 40.93572 | -81.14200 | 36844 ft | 448 kts | 166° |
| 2026-05-09 17:49 | 40.87780 | -81.11113 | 36854 ft | 448 kts | 166° |
| 2026-05-09 17:49 | 40.81988 | -81.08032 | 36863 ft | 449 kts | 166° |
| 2026-05-09 17:50 | 40.76190 | -81.04963 | 36871 ft | 450 kts | 167° |
| 2026-05-09 17:50 | 40.68419 | -81.00852 | 36882 ft | 450 kts | 167° |
| 2026-05-09 17:51 | 40.61664 | -80.97281 | 36887 ft | 450 kts | 167° |
| 2026-05-09 17:51 | 40.55860 | -80.94218 | 36891 ft | 450 kts | 167° |
| 2026-05-09 17:52 | 40.50050 | -80.91165 | 36902 ft | 449 kts | 167° |
| 2026-05-09 17:52 | 40.44245 | -80.88125 | 36903 ft | 449 kts | 167° |
| 2026-05-09 17:53 | 40.38441 | -80.85089 | 36911 ft | 449 kts | 167° |
| 2026-05-09 17:53 | 40.32641 | -80.82058 | 36903 ft | 448 kts | 167° |
| 2026-05-09 17:54 | 40.26839 | -80.79028 | 36907 ft | 448 kts | 167° |
| 2026-05-09 17:54 | 40.21050 | -80.76017 | 36906 ft | 448 kts | 167° |
| 2026-05-09 17:55 | 40.15261 | -80.73011 | 36922 ft | 447 kts | 167° |
| 2026-05-09 17:55 | 40.09480 | -80.70006 | 36916 ft | 447 kts | 167° |
| 2026-05-09 17:56 | 40.03655 | -80.66986 | 36920 ft | 447 kts | 167° |
| 2026-05-09 17:57 | 39.95025 | -80.62535 | 36922 ft | 447 kts | 168° |
| 2026-05-09 17:57 | 39.89236 | -80.59553 | 36912 ft | 447 kts | 168° |
| 2026-05-09 17:58 | 39.83407 | -80.56547 | 36931 ft | 448 kts | 168° |
| 2026-05-09 17:58 | 39.77615 | -80.53573 | 36932 ft | 448 kts | 168° |
| 2026-05-09 17:59 | 39.71817 | -80.50601 | 36934 ft | 448 kts | 168° |
| 2026-05-09 17:59 | 39.66021 | -80.47634 | 36934 ft | 448 kts | 168° |
| 2026-05-09 18:00 | 39.60232 | -80.44671 | 36936 ft | 448 kts | 168° |
| 2026-05-09 18:00 | 39.55411 | -80.42216 | 36931 ft | 447 kts | 168° |
| 2026-05-09 18:01 | 39.49614 | -80.39263 | 36928 ft | 447 kts | 168° |
| 2026-05-09 18:01 | 39.43833 | -80.36328 | 36927 ft | 447 kts | 168° |
| 2026-05-09 18:02 | 39.38026 | -80.33376 | 36925 ft | 448 kts | 168° |
| 2026-05-09 18:02 | 39.32229 | -80.30435 | 36919 ft | 448 kts | 168° |
| 2026-05-09 18:03 | 39.26417 | -80.27508 | 36911 ft | 449 kts | 168° |
| 2026-05-09 18:03 | 39.20599 | -80.24560 | 36915 ft | 449 kts | 169° |
| 2026-05-09 18:04 | 39.14761 | -80.21623 | 36918 ft | 450 kts | 169° |
| 2026-05-09 18:04 | 39.08909 | -80.18694 | 36914 ft | 451 kts | 169° |
| 2026-05-09 18:05 | 39.03060 | -80.15761 | 36928 ft | 452 kts | 169° |
| 2026-05-09 18:05 | 38.97201 | -80.12824 | 36929 ft | 453 kts | 169° |
| 2026-05-09 18:06 | 38.91315 | -80.09876 | 36928 ft | 454 kts | 169° |
| 2026-05-09 18:06 | 38.85408 | -80.07087 | 36921 ft | 452 kts | 172° |
| 2026-05-09 18:07 | 38.79454 | -80.04479 | 36910 ft | 452 kts | 172° |
| 2026-05-09 18:07 | 38.73453 | -80.01853 | 36912 ft | 454 kts | 172° |
| 2026-05-09 18:08 | 38.67518 | -79.99192 | 36921 ft | 456 kts | 172° |
| 2026-05-09 18:08 | 38.61532 | -79.96485 | 36930 ft | 457 kts | 172° |
| 2026-05-09 18:09 | 38.55505 | -79.93782 | 36936 ft | 456 kts | 172° |
| 2026-05-09 18:09 | 38.49553 | -79.91132 | 36961 ft | 455 kts | 174° |
| 2026-05-09 18:10 | 38.43593 | -79.88479 | 36961 ft | 453 kts | 173° |
| 2026-05-09 18:10 | 38.37618 | -79.85812 | 36967 ft | 452 kts | 174° |
| 2026-05-09 18:11 | 38.31680 | -79.83174 | 36966 ft | 451 kts | 174° |
| 2026-05-09 18:11 | 38.25760 | -79.80542 | 36969 ft | 451 kts | 174° |
| 2026-05-09 18:12 | 38.19842 | -79.77922 | 36970 ft | 450 kts | 174° |
| 2026-05-09 18:12 | 38.13918 | -79.75310 | 36971 ft | 450 kts | 174° |
| 2026-05-09 18:13 | 38.08005 | -79.72697 | 36975 ft | 450 kts | 174° |
| 2026-05-09 18:13 | 38.02113 | -79.70101 | 36978 ft | 450 kts | 174° |
| 2026-05-09 18:14 | 37.96184 | -79.67494 | 36982 ft | 450 kts | 174° |
| 2026-05-09 18:14 | 37.90269 | -79.64901 | 36987 ft | 450 kts | 174° |
| 2026-05-09 18:15 | 37.84350 | -79.62315 | 36985 ft | 450 kts | 174° |
| 2026-05-09 18:15 | 37.78434 | -79.59726 | 36982 ft | 450 kts | 174° |
| 2026-05-09 18:16 | 37.72520 | -79.57140 | 36982 ft | 449 kts | 175° |
| 2026-05-09 18:16 | 37.66613 | -79.54560 | 36977 ft | 449 kts | 175° |
| 2026-05-09 18:17 | 37.60717 | -79.51995 | 36971 ft | 448 kts | 175° |
| 2026-05-09 18:17 | 37.54856 | -79.49445 | 36964 ft | 449 kts | 175° |
| 2026-05-09 18:18 | 37.48914 | -79.46866 | 36959 ft | 448 kts | 175° |
| 2026-05-09 18:18 | 37.43021 | -79.44318 | 36957 ft | 448 kts | 175° |
| 2026-05-09 18:19 | 37.37125 | -79.41770 | 36954 ft | 448 kts | 175° |
| 2026-05-09 18:19 | 37.28296 | -79.37956 | 36951 ft | 447 kts | 176° |
| 2026-05-09 18:20 | 37.22428 | -79.35428 | 36946 ft | 446 kts | 176° |
| 2026-05-09 18:20 | 37.16565 | -79.32909 | 36946 ft | 445 kts | 176° |
| 2026-05-09 18:21 | 37.10708 | -79.30396 | 36946 ft | 445 kts | 176° |
| 2026-05-09 18:21 | 37.04839 | -79.27886 | 36944 ft | 445 kts | 176° |
| 2026-05-09 18:22 | 36.98986 | -79.25385 | 36943 ft | 445 kts | 176° |
| 2026-05-09 18:22 | 36.93131 | -79.22883 | 36950 ft | 444 kts | 177° |
| 2026-05-09 18:23 | 36.87286 | -79.20383 | 36956 ft | 444 kts | 177° |
| 2026-05-09 18:23 | 36.81452 | -79.17897 | 36956 ft | 443 kts | 177° |
| 2026-05-09 18:24 | 36.75606 | -79.15417 | 36955 ft | 443 kts | 177° |
| 2026-05-09 18:25 | 36.66857 | -79.11717 | 36956 ft | 443 kts | 177° |
| 2026-05-09 18:25 | 36.61025 | -79.09239 | 36959 ft | 443 kts | 177° |
| 2026-05-09 18:26 | 36.55198 | -79.06771 | 36962 ft | 442 kts | 178° |
| 2026-05-09 18:26 | 36.49374 | -79.04310 | 36967 ft | 442 kts | 178° |
| 2026-05-09 18:27 | 36.43549 | -79.01860 | 36967 ft | 441 kts | 178° |
| 2026-05-09 18:27 | 36.37724 | -78.99418 | 36975 ft | 442 kts | 178° |
| 2026-05-09 18:28 | 36.31893 | -78.96967 | 36979 ft | 442 kts | 178° |
| 2026-05-09 18:28 | 36.26075 | -78.94526 | 36984 ft | 442 kts | 178° |
| 2026-05-09 18:29 | 36.20249 | -78.92086 | 36983 ft | 442 kts | 178° |
| 2026-05-09 18:29 | 36.14424 | -78.89647 | 36984 ft | 442 kts | 178° |
| 2026-05-09 18:30 | 36.08601 | -78.87193 | 36981 ft | 442 kts | 178° |
| 2026-05-09 18:30 | 36.02776 | -78.84754 | 36983 ft | 442 kts | 178° |
| 2026-05-09 18:31 | 35.96949 | -78.82338 | 36980 ft | 441 kts | 179° |
| 2026-05-09 18:31 | 35.91118 | -78.79936 | 36974 ft | 439 kts | 181° |
| 2026-05-09 18:31 | 35.88210 | -78.79066 | 36972 ft | 422 kts | 188° |
| 2026-05-09 18:32 | 35.85358 | -78.78694 | 36974 ft | 404 kts | 196° |
| 2026-05-09 18:32 | 35.82605 | -78.78785 | 36971 ft | 388 kts | 203° |
| 2026-05-09 18:32 | 35.79919 | -78.79088 | 36972 ft | 388 kts | 202° |
| 2026-05-09 18:33 | 35.74537 | -78.79667 | 36943 ft | 389 kts | 202° |
| 2026-05-09 18:33 | 35.71829 | -78.79947 | 36413 ft | 391 kts | 202° |
| 2026-05-09 18:33 | 35.69135 | -78.80216 | 36021 ft | 387 kts | 202° |
| 2026-05-09 18:33 | 35.66459 | -78.80478 | 35629 ft | 383 kts | 202° |
| 2026-05-09 18:34 | 35.63818 | -78.80741 | 35218 ft | 379 kts | 202° |
| 2026-05-09 18:34 | 35.61205 | -78.81004 | 34805 ft | 376 kts | 202° |
| 2026-05-09 18:34 | 35.58609 | -78.81272 | 34410 ft | 372 kts | 202° |
| 2026-05-09 18:34 | 35.56040 | -78.81540 | 33996 ft | 369 kts | 201° |
| 2026-05-09 18:35 | 35.53499 | -78.81805 | 33586 ft | 366 kts | 201° |
| 2026-05-09 18:35 | 35.50966 | -78.82068 | 33179 ft | 363 kts | 201° |
| 2026-05-09 18:35 | 35.48452 | -78.82331 | 32774 ft | 361 kts | 201° |
| 2026-05-09 18:35 | 35.45957 | -78.82595 | 32380 ft | 359 kts | 201° |
| 2026-05-09 18:36 | 35.43472 | -78.82862 | 31983 ft | 358 kts | 201° |
| 2026-05-09 18:36 | 35.41002 | -78.83127 | 31594 ft | 357 kts | 201° |
| 2026-05-09 18:36 | 35.38524 | -78.83390 | 31200 ft | 356 kts | 200° |
| 2026-05-09 18:36 | 35.36065 | -78.83646 | 30822 ft | 355 kts | 200° |
| 2026-05-09 18:37 | 35.33610 | -78.83899 | 30439 ft | 354 kts | 200° |
| 2026-05-09 18:37 | 35.31147 | -78.84147 | 30062 ft | 354 kts | 199° |
| 2026-05-09 18:37 | 35.28698 | -78.84390 | 29695 ft | 352 kts | 199° |
| 2026-05-09 18:37 | 35.26255 | -78.84630 | 29328 ft | 351 kts | 199° |
| 2026-05-09 18:38 | 35.23841 | -78.84871 | 28979 ft | 348 kts | 199° |
| 2026-05-09 18:38 | 35.21425 | -78.85117 | 28613 ft | 346 kts | 199° |
| 2026-05-09 18:38 | 35.19809 | -78.85284 | 28375 ft | 344 kts | 198° |
| 2026-05-09 18:40 | 35.03514 | -78.86975 | 25915 ft | 330 kts | 197° |
| 2026-05-09 18:40 | 35.01228 | -78.87214 | 25547 ft | 329 kts | 197° |
| 2026-05-09 18:40 | 34.98946 | -78.87450 | 25149 ft | 330 kts | 197° |
| 2026-05-09 18:41 | 34.96650 | -78.87684 | 24669 ft | 332 kts | 195° |
| 2026-05-09 18:41 | 34.94339 | -78.87903 | 24198 ft | 334 kts | 195° |
| 2026-05-09 18:41 | 34.92012 | -78.88116 | 23720 ft | 336 kts | 194° |
| 2026-05-09 18:41 | 34.89674 | -78.88326 | 23223 ft | 338 kts | 194° |
| 2026-05-09 18:42 | 34.87323 | -78.88536 | 22726 ft | 340 kts | 194° |
| 2026-05-09 18:42 | 34.84964 | -78.88745 | 22223 ft | 341 kts | 193° |
| 2026-05-09 18:42 | 34.82590 | -78.88952 | 21716 ft | 342 kts | 193° |
| 2026-05-09 18:42 | 34.80205 | -78.89163 | 21209 ft | 343 kts | 193° |
| 2026-05-09 18:43 | 34.77823 | -78.89376 | 20698 ft | 344 kts | 193° |
| 2026-05-09 18:43 | 34.75427 | -78.89594 | 20186 ft | 345 kts | 193° |
| 2026-05-09 18:43 | 34.73034 | -78.89814 | 19667 ft | 345 kts | 193° |
| 2026-05-09 18:43 | 34.70638 | -78.90034 | 19152 ft | 345 kts | 192° |
| 2026-05-09 18:44 | 34.68242 | -78.90251 | 18632 ft | 345 kts | 192° |
| 2026-05-09 18:44 | 34.65854 | -78.90467 | 18215 ft | 342 kts | 192° |
| 2026-05-09 18:44 | 34.63486 | -78.90683 | 17706 ft | 341 kts | 192° |
| 2026-05-09 18:44 | 34.61138 | -78.90894 | 17356 ft | 335 kts | 192° |
| 2026-05-09 18:45 | 34.58819 | -78.91100 | 16866 ft | 334 kts | 192° |
| 2026-05-09 18:45 | 34.56510 | -78.91311 | 16423 ft | 332 kts | 192° |
| 2026-05-09 18:45 | 34.54216 | -78.91521 | 15980 ft | 329 kts | 192° |
| 2026-05-09 18:45 | 34.51944 | -78.91729 | 15542 ft | 327 kts | 192° |
| 2026-05-09 18:46 | 34.49687 | -78.91931 | 15026 ft | 321 kts | 192° |
| 2026-05-09 18:46 | 34.47474 | -78.92126 | 14260 ft | 317 kts | 192° |
| 2026-05-09 18:46 | 34.45299 | -78.92320 | 13773 ft | 311 kts | 192° |
| 2026-05-09 18:46 | 34.43149 | -78.92524 | 13317 ft | 310 kts | 192° |
| 2026-05-09 18:47 | 34.40994 | -78.92733 | 12862 ft | 310 kts | 192° |
| 2026-05-09 18:47 | 34.38849 | -78.92939 | 12409 ft | 309 kts | 192° |
| 2026-05-09 18:47 | 34.36715 | -78.93136 | 11963 ft | 308 kts | 192° |
| 2026-05-09 18:47 | 34.34590 | -78.93328 | 11553 ft | 306 kts | 192° |
| 2026-05-09 18:48 | 34.32473 | -78.93518 | 11176 ft | 303 kts | 191° |
| 2026-05-09 18:48 | 34.30371 | -78.93704 | 10764 ft | 301 kts | 191° |
| 2026-05-09 18:48 | 34.28276 | -78.93890 | 10324 ft | 300 kts | 191° |
| 2026-05-09 18:48 | 34.26191 | -78.94076 | 9830 ft | 302 kts | 190° |
| 2026-05-09 18:49 | 34.24134 | -78.94258 | 9688 ft | 291 kts | 190° |
| 2026-05-09 18:49 | 34.22151 | -78.94432 | 9493 ft | 283 kts | 190° |
| 2026-05-09 18:49 | 34.20193 | -78.94610 | 9199 ft | 280 kts | 190° |
| 2026-05-09 18:49 | 34.18262 | -78.94784 | 8792 ft | 276 kts | 190° |
| 2026-05-09 18:50 | 34.16355 | -78.94955 | 8132 ft | 274 kts | 189° |
| 2026-05-09 18:50 | 34.14465 | -78.95125 | 7488 ft | 272 kts | 189° |
| 2026-05-09 18:50 | 34.12586 | -78.95297 | 7016 ft | 272 kts | 189° |
| 2026-05-09 18:50 | 34.10708 | -78.95468 | 6670 ft | 271 kts | 188° |
| 2026-05-09 18:51 | 34.08839 | -78.95636 | 6299 ft | 270 kts | 188° |
| 2026-05-09 18:51 | 34.06982 | -78.95808 | 6062 ft | 265 kts | 188° |
| 2026-05-09 18:51 | 34.05144 | -78.95972 | 5710 ft | 265 kts | 188° |
| 2026-05-09 18:51 | 34.03307 | -78.96134 | 5360 ft | 265 kts | 187° |
| 2026-05-09 18:52 | 34.01477 | -78.96294 | 5030 ft | 262 kts | 187° |
| 2026-05-09 18:52 | 33.99661 | -78.96454 | 4682 ft | 261 kts | 187° |
| 2026-05-09 18:52 | 33.97848 | -78.96616 | 4355 ft | 260 kts | 187° |
| 2026-05-09 18:52 | 33.96067 | -78.96777 | 4202 ft | 253 kts | 187° |
| 2026-05-09 18:53 | 33.94356 | -78.96929 | 4083 ft | 238 kts | 187° |
| 2026-05-09 18:53 | 33.92775 | -78.97068 | 3987 ft | 220 kts | 187° |
| 2026-05-09 18:53 | 33.91288 | -78.97200 | 3895 ft | 208 kts | 187° |
| 2026-05-09 18:53 | 33.89875 | -78.97325 | 3814 ft | 202 kts | 188° |
| 2026-05-09 18:54 | 33.88477 | -78.97452 | 3722 ft | 201 kts | 188° |
| 2026-05-09 18:54 | 33.87072 | -78.97508 | 3546 ft | 204 kts | 179° |
| 2026-05-09 18:54 | 33.85673 | -78.97251 | 3286 ft | 201 kts | 173° |
| 2026-05-09 18:54 | 33.84338 | -78.96925 | 3026 ft | 190 kts | 172° |
| 2026-05-09 18:55 | 33.83080 | -78.96610 | 2786 ft | 179 kts | 172° |
| 2026-05-09 18:55 | 33.81908 | -78.96316 | 2572 ft | 167 kts | 172° |
| 2026-05-09 18:55 | 33.80775 | -78.96035 | 2335 ft | 162 kts | 172° |
| 2026-05-09 18:55 | 33.79681 | -78.95762 | 2113 ft | 159 kts | 171° |
| 2026-05-09 18:56 | 33.78597 | -78.95490 | 1911 ft | 160 kts | 169° |
| 2026-05-09 18:56 | 33.77513 | -78.95218 | 1693 ft | 158 kts | 169° |
| 2026-05-09 18:56 | 33.76439 | -78.94950 | 1473 ft | 155 kts | 168° |
| 2026-05-09 18:56 | 33.75412 | -78.94692 | 1275 ft | 147 kts | 168° |
| 2026-05-09 18:57 | 33.74440 | -78.94449 | 1084 ft | 140 kts | 167° |
| 2026-05-09 18:57 | 33.73491 | -78.94212 | 925 ft | 135 kts | 168° |
| 2026-05-09 18:57 | 33.72568 | -78.93982 | 726 ft | 134 kts | 168° |
| 2026-05-09 18:57 | 33.71655 | -78.93754 | 566 ft | 134 kts | 167° |
| 2026-05-09 18:58 | 33.70740 | -78.93523 | 374 ft | 134 kts | 167° |
| 2026-05-09 18:58 | 33.69830 | -78.93294 | 199 ft | 134 kts | 168° |
| 2026-05-09 18:58 | 33.68919 | -78.93067 | 37 ft | 131 kts | 168° |
| 2026-05-09 18:58 | 33.68176 | -78.92882 | 30 ft | 85 kts | 168° |
| 2026-05-09 18:59 | 33.67777 | -78.92783 | 31 ft | 33 kts | 167° |
| 2026-05-09 18:59 | 33.67603 | -78.92698 | 31 ft | 27 kts | 147° |
| 2026-05-09 18:59 | 33.67456 | -78.92548 | 31 ft | 28 kts | 140° |
| 2026-05-09 18:59 | 33.67345 | -78.92411 | 31 ft | 12 kts | 93° |
| 2026-05-09 19:00 | 33.67384 | -78.92340 | 31 ft | 12 kts | 10° |
| 2026-05-09 19:00 | 33.67578 | -78.92386 | 31 ft | 17 kts | 346° |
| 2026-05-09 19:00 | 33.67702 | -78.92422 | 31 ft | 20 kts | 341° |
| 2026-05-09 19:01 | 33.67837 | -78.92494 | 32 ft | 23 kts | 335° |
| 2026-05-09 19:01 | 33.67975 | -78.92541 | 32 ft | 21 kts | 348° |
| 2026-05-09 19:01 | 33.68104 | -78.92574 | 32 ft | 19 kts | 351° |
| 2026-05-09 19:01 | 33.68148 | -78.92523 | 32 ft | 6 kts | 92° |
| 2026-05-09 19:02 | 33.68153 | -78.92457 | 32 ft | 9 kts | 77° |
| 2026-05-09 19:02 | 33.68163 | -78.92411 | 32 ft | 6 kts | 76° |
| 2026-05-09 19:02 | 33.68168 | -78.92385 | 32 ft | 4 kts | 76° |
| 2026-05-09 19:02 | 33.68168 | -78.92383 | 32 ft | 0 kts | 76° |